createdAt,value
2018-05-02T00:02:11.546Z,9.95
2018-05-02T00:04:39.751Z,10.47
2018-05-02T00:07:07.943Z,10.27
2018-05-02T00:09:36.887Z,11.03
2018-05-02T00:12:04.300Z,10.90
2018-05-02T00:14:32.480Z,11.40
2018-05-02T00:17:00.683Z,9.93
2018-05-02T00:19:28.866Z,10.20
2018-05-02T00:21:57.050Z,10.70
2018-05-02T00:24:25.255Z,10.63
2018-05-02T00:26:53.431Z,10.00
2018-05-02T00:29:20.852Z,10.20
2018-05-02T00:31:48.271Z,10.00
2018-05-02T00:34:15.752Z,12.07
2018-05-02T00:36:43.164Z,10.50
2018-05-02T00:39:11.360Z,11.10
2018-05-02T00:41:38.797Z,11.97
2018-05-02T00:44:06.580Z,12.05
2018-05-02T00:46:34.954Z,10.93
2018-05-02T00:49:14.070Z,11.80
2018-05-02T00:51:41.479Z,12.90
2018-05-02T00:54:08.896Z,11.90
2018-05-02T00:56:37.567Z,12.15
2018-05-02T00:59:05.005Z,12.27
2018-05-02T01:01:32.425Z,12.17
2018-05-02T01:04:00.621Z,12.50
2018-05-02T01:06:28.034Z,12.10
2018-05-02T01:08:55.474Z,12.10
2018-05-02T01:11:22.914Z,12.30
2018-05-02T01:13:50.304Z,12.17
2018-05-02T01:16:17.730Z,11.97
2018-05-02T01:18:45.132Z,11.90
2018-05-02T01:21:12.567Z,11.90
2018-05-02T01:23:39.991Z,12.10
2018-05-02T01:26:07.429Z,12.33
2018-05-02T01:28:35.614Z,11.73
2018-05-02T01:31:03.037Z,11.90
2018-05-02T01:33:30.533Z,12.83
2018-05-02T01:35:57.944Z,11.50
2018-05-02T01:38:25.373Z,11.90
2018-05-02T01:40:52.792Z,12.20
2018-05-02T01:43:20.213Z,10.80
2018-05-02T01:45:48.384Z,11.67
2018-05-02T01:48:17.333Z,10.53
2018-05-02T01:50:44.784Z,11.10
2018-05-02T01:53:12.958Z,10.10
2018-05-02T01:55:41.158Z,10.73
2018-05-02T01:58:09.333Z,9.67
2018-05-02T02:00:38.453Z,10.87
2018-05-02T02:03:05.865Z,10.32
2018-05-02T02:05:33.292Z,10.17
2018-05-02T02:08:00.762Z,10.40
2018-05-02T02:10:28.937Z,10.90
2018-05-02T02:12:57.119Z,9.80
2018-05-02T02:15:25.298Z,10.60
2018-05-02T02:17:52.744Z,9.90
2018-05-02T02:20:20.156Z,10.50
2018-05-02T02:22:48.369Z,11.30
2018-05-02T02:25:15.792Z,10.83
2018-05-02T02:27:44.002Z,10.77
2018-05-02T02:30:12.185Z,11.50
2018-05-02T02:32:40.369Z,11.90
2018-05-02T02:35:09.068Z,11.35
2018-05-02T02:37:36.485Z,10.87
2018-05-02T02:40:03.911Z,10.80
2018-05-02T02:42:31.319Z,11.13
2018-05-02T02:44:58.769Z,11.20
2018-05-02T02:47:26.218Z,10.33
2018-05-02T02:49:53.688Z,10.77
2018-05-02T02:52:21.115Z,10.70
2018-05-02T02:54:48.525Z,10.00
2018-05-02T02:57:15.958Z,11.37
2018-05-02T02:59:43.393Z,11.20
2018-05-02T03:02:10.809Z,10.30
2018-05-02T03:04:39.402Z,10.40
2018-05-02T03:07:07.599Z,10.97
2018-05-02T03:09:35.796Z,10.90
2018-05-02T03:12:03.242Z,10.70
2018-05-02T03:14:31.425Z,11.33
2018-05-02T03:16:58.867Z,10.67
2018-05-02T03:19:26.289Z,10.70
2018-05-02T03:21:53.709Z,10.43
2018-05-02T03:24:21.132Z,10.43
2018-05-02T03:26:48.568Z,11.40
2018-05-02T03:29:16.761Z,11.25
2018-05-02T03:31:44.946Z,11.30
2018-05-02T03:34:13.130Z,11.30
2018-05-02T03:36:40.566Z,10.90
2018-05-02T03:39:07.976Z,11.03
2018-05-02T03:41:36.211Z,10.37
2018-05-02T03:44:03.656Z,11.07
2018-05-02T03:46:31.117Z,11.30
2018-05-02T03:48:58.532Z,10.33
2018-05-02T03:51:25.968Z,11.03
2018-05-02T03:53:53.396Z,11.27
2018-05-02T03:56:20.845Z,11.30
2018-05-02T03:58:48.276Z,10.10
2018-05-02T04:01:27.577Z,11.30
2018-05-02T04:04:07.475Z,10.07
2018-05-02T04:09:41.506Z,10.73
2018-05-02T04:12:21.331Z,10.00
2018-05-02T04:14:48.780Z,10.75
2018-05-02T04:17:16.195Z,10.77
2018-05-02T04:19:43.620Z,10.50
2018-05-02T04:22:11.040Z,10.57
2018-05-02T04:24:40.171Z,10.60
2018-05-02T04:27:07.675Z,10.90
2018-05-02T04:29:35.088Z,10.30
2018-05-02T04:32:03.310Z,10.83
2018-05-02T04:34:30.740Z,10.17
2018-05-02T04:36:58.920Z,9.70
2018-05-02T04:39:27.101Z,10.10
2018-05-02T04:41:55.284Z,10.37
2018-05-02T04:44:22.713Z,10.50
2018-05-02T04:46:50.128Z,10.05
2018-05-02T04:49:18.337Z,11.10
2018-05-02T04:51:45.768Z,10.23
2018-05-02T04:54:13.284Z,10.33
2018-05-02T04:56:40.696Z,9.90
2018-05-02T04:59:08.129Z,10.10
2018-05-02T05:01:35.551Z,9.63
2018-05-02T05:04:02.985Z,10.00
2018-05-02T05:06:30.500Z,10.00
2018-05-02T05:08:57.896Z,9.47
2018-05-02T05:11:25.316Z,9.70
2018-05-02T05:13:52.760Z,9.90
2018-05-02T05:16:20.170Z,9.27
2018-05-02T05:18:48.374Z,10.00
2018-05-02T05:21:16.548Z,10.70
2018-05-02T05:23:44.748Z,10.80
2018-05-02T05:26:12.178Z,9.23
2018-05-02T05:28:39.603Z,10.40
2018-05-02T05:31:07.040Z,10.25
2018-05-02T05:33:35.546Z,9.17
2018-05-02T05:36:02.971Z,9.40
2018-05-02T05:38:30.393Z,10.73
2018-05-02T05:40:57.848Z,9.70
2018-05-02T05:43:27.491Z,9.43
2018-05-02T05:45:56.549Z,9.73
2018-05-02T05:48:23.968Z,9.70
2018-05-02T05:50:51.373Z,9.70
2018-05-02T05:53:18.809Z,8.13
2018-05-02T05:55:46.220Z,9.30
2018-05-02T05:58:13.673Z,8.70
2018-05-02T06:00:42.199Z,9.70
2018-05-02T06:03:09.585Z,11.67
2018-05-02T06:05:37.012Z,9.43
2018-05-02T06:08:04.424Z,9.50
2018-05-02T06:10:31.841Z,8.83
2018-05-02T06:12:59.262Z,9.77
2018-05-02T06:15:26.703Z,8.73
2018-05-02T06:17:54.181Z,9.17
2018-05-02T06:20:22.430Z,8.60
2018-05-02T06:22:49.844Z,8.67
2018-05-02T06:25:17.265Z,8.90
2018-05-02T06:27:44.706Z,8.27
2018-05-02T06:30:12.106Z,8.40
2018-05-02T06:32:39.525Z,8.17
2018-05-02T06:35:06.964Z,7.80
2018-05-02T06:37:35.256Z,8.70
2018-05-02T06:40:03.353Z,7.80
2018-05-02T06:42:31.537Z,8.10
2018-05-02T06:44:59.729Z,12.47
2018-05-02T06:47:27.931Z,10.90
2018-05-02T06:49:55.386Z,9.00
2018-05-02T06:52:22.811Z,9.60
2018-05-02T06:54:50.230Z,9.07
2018-05-02T06:57:17.642Z,8.47
2018-05-02T06:59:45.064Z,8.23
2018-05-02T07:02:12.497Z,8.43
2018-05-02T07:04:40.694Z,8.50
2018-05-02T07:07:08.149Z,8.00
2018-05-02T07:09:35.536Z,8.27
2018-05-02T07:12:02.995Z,8.23
2018-05-02T07:14:30.395Z,8.93
2018-05-02T07:16:57.810Z,8.63
2018-05-02T07:19:25.248Z,8.90
2018-05-02T07:21:52.667Z,9.73
2018-05-02T07:24:20.098Z,8.95
2018-05-02T07:26:47.522Z,8.77
2018-05-02T07:29:15.705Z,8.93
2018-05-02T07:31:43.921Z,9.33
2018-05-02T07:34:11.429Z,9.07
2018-05-02T07:36:38.836Z,9.20
2018-05-02T07:39:06.281Z,9.03
2018-05-02T07:41:33.707Z,9.50
2018-05-02T07:44:01.158Z,9.30
2018-05-02T07:46:28.577Z,9.30
2018-05-02T07:48:56.097Z,8.97
2018-05-02T07:51:23.530Z,8.40
2018-05-02T07:53:50.957Z,8.63
2018-05-02T07:56:18.524Z,8.37
2018-05-02T07:58:45.912Z,8.43
2018-05-02T08:01:13.415Z,9.27
2018-05-02T08:03:41.607Z,8.43
2018-05-02T08:06:09.064Z,8.20
2018-05-02T08:08:36.512Z,8.80
2018-05-02T08:11:04.084Z,8.63
2018-05-02T08:13:31.512Z,7.90
2018-05-02T08:15:58.942Z,8.20
2018-05-02T08:18:27.117Z,7.67
2018-05-02T08:20:54.601Z,8.30
2018-05-02T08:23:21.942Z,7.93
2018-05-02T08:25:49.472Z,8.90
2018-05-02T08:28:16.896Z,8.60
2018-05-02T08:30:44.357Z,8.30
2018-05-02T08:33:11.775Z,8.70
2018-05-02T08:35:39.196Z,9.20
2018-05-02T08:38:06.627Z,8.37
2018-05-02T08:40:34.069Z,8.23
2018-05-02T08:43:02.250Z,8.60
2018-05-02T08:45:29.672Z,8.30
2018-05-02T08:47:57.094Z,8.53
2018-05-02T08:50:24.512Z,7.90
2018-05-02T08:52:51.936Z,7.47
2018-05-02T08:55:19.513Z,8.37
2018-05-02T08:57:46.951Z,7.90
2018-05-02T09:00:14.501Z,7.40
2018-05-02T09:02:41.937Z,8.10
2018-05-02T09:05:09.363Z,7.70
2018-05-02T09:07:37.560Z,7.40
2018-05-02T09:10:05.741Z,7.20
2018-05-02T09:12:33.956Z,6.83
2018-05-02T09:15:01.388Z,7.20
2018-05-02T09:17:29.565Z,7.10
2018-05-02T09:19:57.758Z,7.47
2018-05-02T09:22:25.237Z,7.60
2018-05-02T09:24:53.436Z,7.47
2018-05-02T09:27:20.851Z,6.97
2018-05-02T09:29:48.346Z,7.50
2018-05-02T09:32:15.770Z,8.40
2018-05-02T09:34:43.177Z,7.00
2018-05-02T09:37:10.594Z,7.03
2018-05-02T09:39:38.032Z,7.77
2018-05-02T09:42:06.257Z,7.20
2018-05-02T09:44:33.672Z,6.83
2018-05-02T09:47:01.935Z,7.77
2018-05-02T09:49:29.368Z,7.07
2018-05-02T09:51:56.820Z,6.70
2018-05-02T09:54:24.208Z,6.43
2018-05-02T09:56:51.616Z,6.70
2018-05-02T09:59:19.066Z,6.50
2018-05-02T10:01:46.477Z,6.93
2018-05-02T10:04:15.604Z,5.27
2018-05-02T10:06:43.036Z,5.70
2018-05-02T10:09:10.469Z,6.33
2018-05-02T10:11:37.900Z,5.70
2018-05-02T10:14:05.392Z,5.90
2018-05-02T10:16:32.769Z,5.77
2018-05-02T10:19:00.187Z,6.73
2018-05-02T10:21:27.688Z,6.47
2018-05-02T10:23:55.850Z,5.23
2018-05-02T10:26:24.124Z,5.90
2018-05-02T10:28:51.492Z,5.90
2018-05-02T10:31:18.922Z,5.97
2018-05-02T10:33:46.321Z,5.10
2018-05-02T10:36:14.512Z,5.40
2018-05-02T10:38:42.719Z,5.20
2018-05-02T10:41:10.124Z,5.67
2018-05-02T10:43:37.548Z,5.30
2018-05-02T10:46:05.733Z,5.10
2018-05-02T10:48:33.918Z,5.70
2018-05-02T10:51:01.367Z,5.90
2018-05-02T10:53:28.775Z,5.97
2018-05-02T10:55:56.284Z,5.20
2018-05-02T10:58:23.691Z,5.10
2018-05-02T11:00:51.882Z,5.53
2018-05-02T11:03:20.069Z,6.03
2018-05-02T11:05:48.255Z,6.00
2018-05-02T11:08:17.386Z,5.90
2018-05-02T11:10:45.546Z,6.30
2018-05-02T11:13:13.733Z,6.07
2018-05-02T11:15:41.959Z,6.40
2018-05-02T11:18:09.365Z,6.10
2018-05-02T11:20:36.790Z,6.33
2018-05-02T11:23:04.222Z,5.67
2018-05-02T11:25:31.632Z,5.40
2018-05-02T11:27:59.068Z,5.10
2018-05-02T11:30:27.289Z,5.67
2018-05-02T11:32:54.710Z,6.33
2018-05-02T11:35:22.888Z,5.90
2018-05-02T11:37:50.401Z,5.23
2018-05-02T11:40:18.563Z,5.60
2018-05-02T11:42:47.697Z,6.07
2018-05-02T11:45:15.108Z,4.80
2018-05-02T11:47:42.523Z,6.60
2018-05-02T11:50:09.941Z,4.70
2018-05-02T11:52:37.376Z,4.57
2018-05-02T11:55:04.780Z,4.77
2018-05-02T11:57:32.300Z,4.80
2018-05-02T11:59:59.770Z,4.80
2018-05-02T12:02:27.246Z,4.67
2018-05-02T12:04:54.652Z,4.80
2018-05-02T12:07:22.074Z,4.13
2018-05-02T12:09:49.500Z,4.20
2018-05-02T12:12:17.846Z,4.90
2018-05-02T12:14:45.269Z,4.33
2018-05-02T12:17:13.448Z,4.13
2018-05-02T12:19:42.390Z,4.37
2018-05-02T12:22:09.796Z,3.83
2018-05-02T12:24:37.212Z,3.60
2018-05-02T12:27:04.694Z,4.00
2018-05-02T12:29:32.855Z,3.73
2018-05-02T12:32:01.025Z,3.80
2018-05-02T12:34:28.445Z,4.07
2018-05-02T12:36:55.928Z,4.40
2018-05-02T12:39:23.354Z,3.80
2018-05-02T12:41:51.535Z,3.60
2018-05-02T12:44:19.738Z,4.20
2018-05-02T12:46:47.196Z,4.13
2018-05-02T12:49:14.589Z,4.10
2018-05-02T12:51:42.012Z,4.23
2018-05-02T12:54:09.424Z,5.00
2018-05-02T12:56:36.901Z,4.40
2018-05-02T12:59:04.448Z,4.07
2018-05-02T13:01:31.887Z,4.00
2018-05-02T13:03:59.285Z,4.00
2018-05-02T13:06:26.709Z,4.20
2018-05-02T13:08:54.113Z,4.13
2018-05-02T13:11:21.596Z,4.50
2018-05-02T13:13:49.873Z,4.10
2018-05-02T13:16:17.276Z,3.87
2018-05-02T13:18:44.718Z,3.90
2018-05-02T13:21:12.120Z,3.40
2018-05-02T13:23:39.540Z,4.00
2018-05-02T13:26:07.740Z,3.60
2018-05-02T13:28:35.192Z,3.60
2018-05-02T13:31:03.374Z,3.50
2018-05-02T13:33:31.543Z,3.10
2018-05-02T13:35:58.983Z,3.47
2018-05-02T13:38:26.415Z,3.43
2018-05-02T13:40:53.826Z,4.30
2018-05-02T13:43:21.225Z,3.63
2018-05-02T13:45:50.333Z,3.63
2018-05-02T13:48:19.445Z,3.10
2018-05-02T13:50:46.897Z,3.77
2018-05-02T13:53:14.328Z,4.17
2018-05-02T13:55:41.780Z,4.20
2018-05-02T13:58:09.974Z,4.57
2018-05-02T14:00:37.387Z,4.00
2018-05-02T14:03:04.813Z,3.97
2018-05-02T14:05:32.241Z,4.87
2018-05-02T14:08:00.428Z,5.50
2018-05-02T14:10:28.618Z,5.40
2018-05-02T14:12:56.801Z,4.57
2018-05-02T14:15:24.224Z,4.80
2018-05-02T14:17:51.649Z,4.27
2018-05-02T14:20:19.077Z,4.43
2018-05-02T14:22:46.500Z,4.60
2018-05-02T14:25:13.944Z,5.03
2018-05-02T14:27:42.125Z,4.43
2018-05-02T14:30:10.304Z,6.10
2018-05-02T14:32:37.737Z,6.50
2018-05-02T14:35:05.141Z,6.00
2018-05-02T14:37:32.563Z,5.77
2018-05-02T14:39:59.968Z,6.03
2018-05-02T14:42:27.382Z,6.70
2018-05-02T14:44:54.850Z,5.83
2018-05-02T14:47:22.272Z,5.40
2018-05-02T14:49:49.796Z,7.17
2018-05-02T14:52:17.210Z,6.70
2018-05-02T14:54:44.663Z,6.00
2018-05-02T14:57:12.071Z,5.90
2018-05-02T14:59:40.274Z,6.27
2018-05-02T15:02:07.822Z,6.30
2018-05-02T15:04:35.102Z,6.30
2018-05-02T15:07:02.541Z,6.60
2018-05-02T15:09:30.046Z,5.40
2018-05-02T15:11:57.465Z,6.20
2018-05-02T15:14:24.900Z,6.40
2018-05-02T15:16:52.295Z,6.30
2018-05-02T15:19:19.733Z,6.80
2018-05-02T15:21:47.144Z,7.33
2018-05-02T15:24:14.568Z,6.50
2018-05-02T15:26:42.005Z,7.00
2018-05-02T15:29:10.185Z,6.70
2018-05-02T15:31:38.394Z,6.90
2018-05-02T15:34:05.812Z,6.67
2018-05-02T15:36:33.442Z,7.17
2018-05-02T15:39:00.867Z,6.90
2018-05-02T15:41:29.058Z,6.83
2018-05-02T15:43:56.461Z,7.63
2018-05-02T15:46:23.906Z,7.10
2018-05-02T15:48:52.713Z,7.93
2018-05-02T15:51:20.893Z,8.50
2018-05-02T15:53:49.121Z,8.40
2018-05-02T15:56:16.526Z,9.70
2018-05-02T15:58:43.951Z,8.50
2018-05-02T16:01:11.373Z,8.93
2018-05-02T16:03:38.827Z,9.97
2018-05-02T16:06:06.378Z,10.20
2018-05-02T16:08:33.797Z,10.63
2018-05-02T16:11:02.002Z,9.40
2018-05-02T16:13:29.417Z,8.27
2018-05-02T16:15:56.850Z,8.43
2018-05-02T16:18:24.338Z,8.50
2018-05-02T16:20:52.709Z,8.80
2018-05-02T16:23:20.136Z,8.60
2018-05-02T16:25:48.330Z,8.00
2018-05-02T16:28:16.527Z,7.77
2018-05-02T16:30:44.698Z,8.23
2018-05-02T16:33:13.015Z,8.10
2018-05-02T16:35:40.336Z,7.90
2018-05-02T16:38:07.986Z,8.07
2018-05-02T16:40:35.832Z,7.90
2018-05-02T16:43:03.264Z,7.63
2018-05-02T16:45:30.691Z,7.80
2018-05-02T16:47:58.108Z,7.50
2018-05-02T16:50:26.291Z,7.03
2018-05-02T16:52:53.737Z,7.30
2018-05-02T16:55:21.137Z,7.10
2018-05-02T16:57:49.337Z,7.47
2018-05-02T17:00:17.524Z,7.93
2018-05-02T17:02:44.932Z,7.40
2018-05-02T17:05:12.380Z,6.40
2018-05-02T17:07:39.804Z,7.30
2018-05-02T17:10:07.212Z,6.50
2018-05-02T17:12:34.678Z,7.20
2018-05-02T17:15:02.100Z,7.07
2018-05-02T17:17:29.534Z,7.67
2018-05-02T17:19:56.940Z,6.83
2018-05-02T17:22:24.463Z,7.23
2018-05-02T17:24:51.808Z,6.87
2018-05-02T17:27:19.976Z,7.57
2018-05-02T17:29:48.168Z,7.33
2018-05-02T17:32:16.342Z,7.20
2018-05-02T17:34:44.520Z,6.53
2018-05-02T17:37:11.956Z,7.27
2018-05-02T17:39:39.364Z,7.93
2018-05-02T17:42:08.357Z,6.80
2018-05-02T17:44:35.784Z,6.83
2018-05-02T17:47:03.224Z,6.72
2018-05-02T17:49:31.422Z,7.57
2018-05-02T17:51:58.852Z,6.93
2018-05-02T17:54:26.277Z,7.60
2018-05-02T17:56:54.480Z,8.20
2018-05-02T17:59:21.893Z,7.67
2018-05-02T18:01:50.076Z,7.30
2018-05-02T18:04:18.283Z,8.57
2018-05-02T18:06:45.705Z,8.27
2018-05-02T18:09:13.124Z,8.50
2018-05-02T18:11:40.552Z,7.97
2018-05-02T18:14:08.005Z,7.30
2018-05-02T18:16:35.409Z,8.27
2018-05-02T18:19:03.591Z,7.03
2018-05-02T18:21:31.008Z,7.90
2018-05-02T18:23:58.445Z,8.67
2018-05-02T18:26:26.620Z,7.90
2018-05-02T18:28:54.956Z,8.73
2018-05-02T18:31:22.375Z,7.90
2018-05-02T18:33:50.580Z,8.83
2018-05-02T18:36:17.992Z,9.40
2018-05-02T18:38:45.421Z,9.60
2018-05-02T18:41:12.824Z,8.70
2018-05-02T18:43:40.256Z,9.10
2018-05-02T18:46:07.662Z,8.53
2018-05-02T18:48:35.097Z,9.73
2018-05-02T18:51:02.524Z,9.10
2018-05-02T18:53:29.933Z,8.97
2018-05-02T18:55:57.370Z,8.40
2018-05-02T18:58:26.355Z,8.45
2018-05-02T19:00:53.750Z,8.27
2018-05-02T19:03:21.137Z,8.60
2018-05-02T19:05:48.565Z,9.20
2018-05-02T19:08:15.970Z,8.70
2018-05-02T19:10:43.409Z,8.37
2018-05-02T19:13:11.584Z,8.17
2018-05-02T19:15:39.008Z,7.80
2018-05-02T19:18:12.126Z,9.10
2018-05-02T19:20:39.539Z,7.80
2018-05-02T19:23:07.725Z,8.07
2018-05-02T19:25:41.656Z,8.30
2018-05-02T19:28:09.840Z,7.67
2018-05-02T19:30:38.095Z,8.30
2018-05-02T19:33:11.328Z,8.07
2018-05-02T19:35:39.528Z,7.93
2018-05-02T19:38:06.989Z,8.07
2018-05-02T19:40:40.174Z,7.87
2018-05-02T19:43:13.332Z,7.70
2018-05-02T19:45:40.776Z,8.55
2018-05-02T19:48:08.996Z,8.23
2018-05-02T19:50:36.521Z,7.77
2018-05-02T19:53:03.948Z,8.40
2018-05-02T19:55:31.378Z,8.52
2018-05-02T19:57:58.789Z,7.77
2018-05-02T20:00:31.829Z,8.97
2018-05-02T20:03:01.236Z,9.10
2018-05-02T20:05:29.412Z,9.50
2018-05-02T20:07:57.615Z,8.90
2018-05-02T20:10:30.816Z,9.43
2018-05-02T20:13:03.963Z,8.23
2018-05-02T20:15:31.384Z,8.67
2018-05-02T20:17:59.554Z,8.87
2018-05-02T20:20:27.729Z,9.17
2018-05-02T20:22:55.241Z,8.67
2018-05-02T20:25:22.764Z,9.00
2018-05-02T20:27:50.895Z,8.90
2018-05-02T20:30:18.316Z,8.83
2018-05-02T20:32:45.782Z,9.07
2018-05-02T20:35:13.184Z,9.50
2018-05-02T20:37:40.619Z,9.27
2018-05-02T20:40:08.052Z,8.70
2018-05-02T20:42:35.759Z,8.60
2018-05-02T20:45:03.167Z,9.60
2018-05-02T20:47:30.680Z,8.90
2018-05-02T20:49:58.115Z,10.33
2018-05-02T20:52:25.513Z,9.67
2018-05-02T20:54:53.004Z,9.53
2018-05-02T20:57:21.125Z,9.10
2018-05-02T20:59:48.617Z,9.13
2018-05-02T21:02:16.038Z,8.77
2018-05-02T21:04:43.460Z,9.47
2018-05-02T21:07:10.876Z,9.17
2018-05-02T21:09:38.304Z,8.60
2018-05-02T21:12:05.754Z,9.43
2018-05-02T21:14:33.181Z,9.60
2018-05-02T21:17:00.572Z,8.37
2018-05-02T21:19:28.013Z,9.30
2018-05-02T21:21:57.873Z,9.47
2018-05-02T21:24:25.338Z,9.30
2018-05-02T21:26:52.779Z,9.50
2018-05-02T21:29:20.957Z,9.13
2018-05-02T21:31:48.380Z,9.00
2018-05-02T21:34:15.810Z,8.73
2018-05-02T21:36:44.021Z,8.63
2018-05-02T21:39:11.448Z,8.40
2018-05-02T21:41:38.907Z,7.90
2018-05-02T21:44:06.327Z,9.40
2018-05-02T21:46:33.765Z,8.87
2018-05-02T21:49:01.942Z,9.47
2018-05-02T21:51:29.365Z,9.50
2018-05-02T21:53:58.332Z,9.95
2018-05-02T21:56:27.448Z,10.30
2018-05-02T21:58:54.887Z,9.50
2018-05-02T22:01:22.306Z,10.43
2018-05-02T22:03:49.779Z,10.90
2018-05-02T22:06:17.239Z,10.13
2018-05-02T22:08:44.673Z,10.50
2018-05-02T22:11:12.873Z,9.90
2018-05-02T22:13:41.060Z,10.23
2018-05-02T22:16:08.505Z,10.98
2018-05-02T22:18:35.935Z,10.60
2018-05-02T22:21:03.345Z,10.33
2018-05-02T22:23:31.536Z,10.90
2018-05-02T22:25:59.736Z,11.00
2018-05-02T22:28:28.753Z,11.10
2018-05-02T22:30:56.409Z,10.93
2018-05-02T22:33:24.719Z,10.93
2018-05-02T22:35:52.152Z,10.80
2018-05-02T22:38:19.572Z,11.37
2018-05-02T22:40:47.025Z,11.53
2018-05-02T22:43:15.196Z,11.20
2018-05-02T22:45:43.381Z,11.93
2018-05-02T22:48:11.587Z,11.50
2018-05-02T22:50:39.012Z,10.80
2018-05-02T22:53:06.457Z,10.83
2018-05-02T22:55:33.882Z,11.30
2018-05-02T22:58:01.357Z,10.63
2018-05-02T23:00:28.800Z,11.63
2018-05-02T23:02:56.976Z,11.40
2018-05-02T23:05:25.192Z,10.97
2018-05-02T23:07:53.368Z,11.50
2018-05-02T23:10:21.560Z,11.10
2018-05-02T23:12:48.983Z,10.77
2018-05-02T23:15:16.455Z,11.33
2018-05-02T23:17:43.956Z,10.87
2018-05-02T23:20:11.414Z,10.93
2018-05-02T23:22:38.931Z,10.77
2018-05-02T23:25:06.446Z,11.20
2018-05-02T23:27:34.639Z,10.97
2018-05-02T23:30:02.826Z,10.07
2018-05-02T23:32:30.275Z,10.50
2018-05-02T23:34:57.702Z,10.47
2018-05-02T23:37:25.154Z,10.33
2018-05-02T23:39:52.584Z,11.30
2018-05-02T23:42:20.008Z,11.60
2018-05-02T23:44:47.433Z,10.67
2018-05-02T23:47:14.868Z,11.30
2018-05-02T23:49:42.282Z,11.23
2018-05-02T23:52:10.478Z,11.00
2018-05-02T23:54:38.672Z,10.50
2018-05-02T23:57:06.079Z,11.43
2018-05-02T23:59:33.513Z,11.00
